Terminal Aerodrome Forecast
Issued by NWS Topeka, KS

Home | Current Version | Previous Version | Text Only | Print | Product List | Glossary On
Versions: 1 2 3 4 5 6 7 8 9 10 11 12 13 14 15
000
FTUS43 KTOP 152320
TAFTOP
TAF
KTOP 152320Z 1600/1624 21007KT P6SM SKC
     FM160200 20007KT P6SM SKC WS015/23040KT
     FM161400 20011KT P6SM SKC=

USA.gov is the U.S. government's official web portal to all federal, state and local government web resources and services.